createdAt,value
2022-10-11T00:01:03.038Z,3.60
2022-10-11T00:03:28.746Z,3.53
2022-10-11T00:05:54.521Z,3.90
2022-10-11T00:08:21.113Z,3.55
2022-10-11T00:10:56.272Z,4.20
2022-10-11T00:13:21.996Z,4.15
2022-10-11T00:15:48.908Z,3.90
2022-10-11T00:18:14.654Z,4.13
2022-10-11T00:20:40.362Z,4.53
2022-10-11T00:23:06.294Z,3.50
2022-10-11T00:25:32.231Z,3.75
2022-10-11T00:27:57.984Z,3.47
2022-10-11T00:30:23.806Z,3.88
2022-10-11T00:32:49.780Z,4.35
2022-10-11T00:35:15.890Z,4.18
2022-10-11T00:37:41.567Z,3.85
2022-10-11T00:40:10.295Z,4.15
2022-10-11T00:42:36.021Z,4.20
2022-10-11T00:45:26.482Z,3.92
2022-10-11T00:47:56.206Z,3.80
2022-10-11T00:50:23.265Z,3.78
2022-10-11T00:52:54.774Z,4.32
2022-10-11T00:55:24.496Z,3.88
2022-10-11T00:57:52.430Z,4.55
2022-10-11T01:00:19.309Z,3.80
2022-10-11T01:02:45.562Z,3.92
2022-10-11T01:05:30.685Z,4.35
2022-10-11T01:07:59.256Z,4.70
2022-10-11T01:10:26.130Z,4.07
2022-10-11T01:13:10.508Z,4.70
2022-10-11T01:15:50.002Z,4.60
2022-10-11T01:18:27.876Z,4.75
2022-10-11T01:21:04.095Z,4.38
2022-10-11T01:24:08.800Z,4.60
2022-10-11T01:26:40.530Z,5.00
2022-10-11T01:29:41.478Z,4.43
2022-10-11T01:32:20.566Z,5.25
2022-10-11T01:35:01.338Z,4.43
2022-10-11T01:37:35.934Z,5.15
2022-10-11T01:40:07.295Z,4.65
2022-10-11T01:42:38.552Z,4.80
2022-10-11T01:45:07.256Z,4.63
2022-10-11T01:47:32.956Z,5.57
2022-10-11T01:50:01.147Z,4.72
2022-10-11T01:52:30.836Z,5.43
2022-10-11T01:55:09.713Z,5.57
2022-10-11T01:58:09.046Z,5.25
2022-10-11T02:01:06.130Z,5.63
2022-10-11T02:03:44.165Z,5.35
2022-10-11T02:06:15.268Z,5.22
2022-10-11T02:08:49.237Z,5.38
2022-10-11T02:11:24.003Z,5.55
2022-10-11T02:13:59.561Z,6.00
2022-10-11T02:16:39.816Z,5.50
2022-10-11T02:19:08.212Z,6.30
2022-10-11T02:21:37.136Z,5.82
2022-10-11T02:24:09.023Z,5.53
2022-10-11T02:26:38.468Z,5.22
2022-10-11T02:29:08.986Z,5.53
2022-10-11T02:31:35.577Z,5.75
2022-10-11T02:34:08.375Z,5.53
2022-10-11T02:36:50.097Z,6.25
2022-10-11T02:39:36.520Z,6.15
2022-10-11T02:42:06.458Z,6.93
2022-10-11T02:44:37.623Z,5.93
2022-10-11T02:47:04.376Z,6.00
2022-10-11T02:49:31.204Z,5.13
2022-10-11T02:51:57.957Z,5.60
2022-10-11T02:54:25.079Z,5.70
2022-10-11T02:56:50.775Z,6.07
2022-10-11T02:59:16.560Z,6.18
2022-10-11T03:01:42.663Z,5.25
2022-10-11T03:04:08.560Z,5.65
2022-10-11T03:06:34.223Z,4.47
2022-10-11T03:08:59.938Z,4.72
2022-10-11T03:11:25.664Z,4.85
2022-10-11T03:13:51.645Z,4.57
2022-10-11T03:16:17.627Z,4.50
2022-10-11T03:18:43.823Z,4.05
2022-10-11T03:21:09.535Z,4.32
2022-10-11T03:23:35.233Z,4.70
2022-10-11T03:26:00.924Z,4.30
2022-10-11T03:28:26.989Z,4.53
2022-10-11T03:30:53.158Z,4.60
2022-10-11T03:33:19.024Z,4.45
2022-10-11T03:35:46.699Z,5.10
2022-10-11T03:38:15.445Z,4.60
2022-10-11T03:40:42.412Z,6.05
2022-10-11T03:43:08.440Z,5.68
2022-10-11T03:45:34.757Z,5.80
2022-10-11T03:48:00.442Z,5.00
2022-10-11T03:50:26.138Z,4.95
2022-10-11T03:52:52.857Z,4.43
2022-10-11T03:55:18.529Z,4.57
2022-10-11T03:57:44.310Z,4.07
2022-10-11T04:00:10.286Z,4.63
2022-10-11T04:02:39.221Z,4.28
2022-10-11T04:05:05.987Z,4.93
2022-10-11T04:07:32.544Z,4.60
2022-10-11T04:09:58.424Z,4.38
2022-10-11T04:12:24.560Z,4.65
2022-10-11T04:14:50.498Z,4.50
2022-10-11T04:17:16.219Z,5.50
2022-10-11T04:19:42.028Z,4.82
2022-10-11T04:22:07.826Z,4.88
2022-10-11T04:24:33.577Z,4.90
2022-10-11T04:26:59.583Z,4.70
2022-10-11T04:29:28.846Z,4.38
2022-10-11T04:31:58.075Z,4.90
2022-10-11T04:34:23.916Z,4.82
2022-10-11T04:36:50.191Z,4.30
2022-10-11T04:39:15.964Z,4.22
2022-10-11T04:41:41.718Z,4.10
2022-10-11T04:44:07.409Z,5.18
2022-10-11T04:46:33.199Z,7.28
2022-10-11T04:48:59.048Z,7.65
2022-10-11T04:51:25.170Z,5.57
2022-10-11T04:53:51.467Z,4.95
2022-10-11T04:56:17.870Z,4.82
2022-10-11T04:58:44.730Z,6.38
2022-10-11T05:01:10.806Z,9.85
2022-10-11T05:03:37.498Z,10.57
2022-10-11T05:06:05.932Z,7.68
2022-10-11T05:08:32.837Z,6.95
2022-10-11T05:11:06.750Z,6.65
2022-10-11T05:13:34.566Z,7.68
2022-10-11T05:16:00.956Z,5.93
2022-10-11T05:18:27.292Z,6.70
2022-10-11T05:21:01.866Z,7.40
2022-10-11T05:23:29.109Z,7.13
2022-10-11T05:25:55.053Z,7.10
2022-10-11T05:28:21.081Z,8.15
2022-10-11T05:30:46.819Z,7.22
2022-10-11T05:33:12.506Z,8.73
2022-10-11T05:35:38.290Z,11.73
2022-10-11T05:38:04.560Z,8.65
2022-10-11T05:40:30.285Z,10.40
2022-10-11T05:42:56.399Z,10.05
2022-10-11T05:45:22.204Z,9.13
2022-10-11T05:47:48.031Z,10.77
2022-10-11T05:50:13.746Z,9.77
2022-10-11T05:52:39.519Z,9.98
2022-10-11T05:55:05.660Z,10.02
2022-10-11T05:57:31.560Z,10.27
2022-10-11T05:59:57.324Z,10.70
2022-10-11T06:02:22.998Z,10.40
2022-10-11T06:04:48.803Z,8.68
2022-10-11T06:07:14.492Z,9.63
2022-10-11T06:09:40.158Z,11.63
2022-10-11T06:12:06.061Z,10.18
2022-10-11T06:14:31.783Z,12.43
2022-10-11T06:16:57.854Z,11.75
2022-10-11T06:19:23.646Z,11.35
2022-10-11T06:21:49.584Z,12.63
2022-10-11T06:24:15.286Z,10.68
2022-10-11T06:26:40.964Z,14.73
2022-10-11T06:29:06.956Z,11.20
2022-10-11T06:31:32.620Z,10.70
2022-10-11T06:33:58.880Z,10.27
2022-10-11T06:36:25.360Z,11.75
2022-10-11T06:38:52.157Z,11.90
2022-10-11T06:41:23.597Z,11.10
2022-10-11T06:43:49.940Z,9.77
2022-10-11T06:46:17.190Z,10.63
2022-10-11T06:48:44.446Z,10.38
2022-10-11T06:51:14.307Z,9.90
2022-10-11T06:53:40.864Z,10.80
2022-10-11T06:56:09.953Z,10.43
2022-10-11T06:58:36.356Z,10.85
2022-10-11T07:01:05.020Z,11.40
2022-10-11T07:03:30.950Z,11.20
2022-10-11T07:06:05.360Z,10.80
2022-10-11T07:08:31.550Z,10.50
2022-10-11T07:11:09.413Z,10.45
2022-10-11T07:13:36.212Z,9.40
2022-10-11T07:16:07.979Z,10.20
2022-10-11T07:18:34.635Z,10.93
2022-10-11T07:21:12.722Z,10.30
2022-10-11T07:23:38.648Z,10.63
2022-10-11T07:26:06.576Z,10.43
2022-10-11T07:28:34.095Z,9.98
2022-10-11T07:31:05.313Z,9.70
2022-10-11T07:33:31.171Z,10.82
2022-10-11T07:35:57.169Z,11.25
2022-10-11T07:38:23.132Z,10.75
2022-10-11T07:40:49.080Z,10.95
2022-10-11T07:43:14.842Z,10.98
2022-10-11T07:45:44.320Z,10.85
2022-10-11T07:48:10.535Z,10.32
2022-10-11T07:50:37.008Z,9.85
2022-10-11T07:53:03.246Z,10.95
2022-10-11T07:55:30.886Z,9.45
2022-10-11T07:57:57.368Z,9.05
2022-10-11T08:00:23.430Z,8.73
2022-10-11T08:02:49.176Z,10.02
2022-10-11T08:05:15.170Z,9.00
2022-10-11T08:07:40.913Z,10.93
2022-10-11T08:10:07.740Z,9.85
2022-10-11T08:12:33.878Z,9.30
2022-10-11T08:14:59.938Z,9.68
2022-10-11T08:17:25.886Z,10.02
2022-10-11T08:19:51.943Z,9.43
2022-10-11T08:22:17.663Z,8.50
2022-10-11T08:24:43.538Z,8.82
2022-10-11T08:27:09.277Z,9.30
2022-10-11T08:29:35.129Z,9.25
2022-10-11T08:32:00.814Z,9.30
2022-10-11T08:34:26.672Z,8.63
2022-10-11T08:36:52.379Z,8.98
2022-10-11T08:39:18.150Z,9.57
2022-10-11T08:41:49.519Z,8.80
2022-10-11T08:44:58.222Z,8.98
2022-10-11T08:47:27.877Z,9.90
2022-10-11T08:49:55.232Z,8.93
2022-10-11T08:54:59.196Z,8.75
2022-10-11T08:57:28.077Z,9.20
2022-10-11T08:59:58.547Z,8.60
2022-10-11T09:03:09.730Z,8.95
2022-10-11T09:05:52.784Z,8.40
2022-10-11T09:08:51.113Z,9.43
2022-10-11T09:12:00.417Z,8.88
2022-10-11T09:14:44.779Z,9.43
2022-10-11T09:17:29.030Z,8.95
2022-10-11T09:20:33.066Z,8.82
2022-10-11T09:23:29.547Z,7.60
2022-10-11T09:26:05.695Z,6.43
2022-10-11T09:28:50.562Z,6.75
2022-10-11T09:31:16.706Z,6.43
2022-10-11T09:33:47.360Z,6.15
2022-10-11T09:36:38.777Z,6.30
2022-10-11T09:41:56.190Z,5.78
2022-10-11T09:44:24.059Z,6.15
2022-10-11T09:46:52.283Z,6.18
2022-10-11T09:49:20.941Z,6.13
2022-10-11T09:51:52.448Z,5.68
2022-10-11T09:54:26.517Z,6.10
2022-10-11T09:56:52.417Z,5.93
2022-10-11T09:59:20.962Z,6.22
2022-10-11T10:01:46.794Z,6.05
2022-10-11T10:04:19.231Z,6.05
2022-10-11T10:06:44.969Z,5.88
2022-10-11T10:09:30.297Z,6.35
2022-10-11T10:14:28.026Z,5.80
2022-10-11T10:17:00.691Z,5.82
2022-10-11T10:19:26.837Z,5.55
2022-10-11T10:21:54.734Z,5.50
2022-10-11T10:24:32.676Z,4.97
2022-10-11T10:27:14.183Z,5.40
2022-10-11T10:29:40.801Z,5.30
2022-10-11T10:32:20.516Z,5.72
2022-10-11T10:35:02.750Z,5.32
2022-10-11T10:37:49.698Z,6.38
2022-10-11T10:40:37.101Z,5.68
2022-10-11T10:43:03.261Z,5.50
2022-10-11T10:45:52.397Z,5.55
2022-10-11T10:49:18.748Z,5.55
2022-10-11T10:51:37.783Z,4.93
2022-10-11T10:54:21.731Z,5.35
2022-10-11T10:57:01.008Z,5.97
2022-10-11T10:59:45.208Z,5.95
2022-10-11T11:02:40.606Z,5.38
2022-10-11T11:05:25.494Z,4.80
2022-10-11T11:08:02.427Z,5.35
2022-10-11T11:10:35.928Z,5.15
2022-10-11T11:13:07.623Z,5.25
2022-10-11T11:15:47.227Z,5.63
2022-10-11T11:18:37.805Z,5.35
2022-10-11T11:21:21.537Z,5.43
2022-10-11T11:24:42.670Z,5.53
2022-10-11T11:27:25.532Z,5.82
2022-10-11T11:30:12.764Z,6.05
2022-10-11T11:33:14.950Z,5.05
2022-10-11T11:35:44.649Z,6.38
2022-10-11T11:38:27.114Z,5.47
2022-10-11T11:40:59.767Z,5.40
2022-10-11T11:43:33.048Z,5.60
2022-10-11T11:48:27.256Z,5.72
2022-10-11T11:51:13.359Z,5.05
2022-10-11T11:53:51.064Z,5.70
2022-10-11T11:56:26.962Z,5.32
2022-10-11T11:59:09.058Z,5.00
2022-10-11T12:01:43.781Z,4.88
2022-10-11T12:04:24.250Z,5.20
2022-10-11T12:07:16.267Z,5.20
2022-10-11T12:09:49.590Z,5.43
2022-10-11T12:12:28.972Z,5.68
2022-10-11T12:15:31.090Z,4.97
2022-10-11T12:17:56.897Z,5.38
2022-10-11T12:20:37.202Z,5.55
2022-10-11T12:23:29.275Z,5.55
2022-10-11T12:26:29.007Z,5.10
2022-10-11T12:29:16.604Z,5.15
2022-10-11T12:31:46.279Z,4.85
2022-10-11T12:34:33.086Z,5.07
2022-10-11T12:37:04.425Z,4.95
2022-10-11T12:39:54.092Z,4.57
2022-10-11T12:42:19.699Z,4.72
2022-10-11T12:45:14.093Z,5.00
2022-10-11T12:47:47.625Z,5.53
2022-10-11T12:50:42.923Z,5.15
2022-10-11T12:53:26.480Z,5.28
2022-10-11T12:56:11.493Z,5.55
2022-10-11T12:58:40.920Z,4.82
2022-10-11T13:01:11.199Z,4.95
2022-10-11T13:03:45.917Z,6.00
2022-10-11T13:06:24.126Z,6.00
2022-10-11T13:08:56.268Z,5.45
2022-10-11T13:11:28.777Z,6.03
2022-10-11T13:14:04.565Z,5.60
2022-10-11T13:16:46.873Z,5.65
2022-10-11T13:19:13.922Z,5.30
2022-10-11T13:21:39.656Z,5.88
2022-10-11T13:24:18.037Z,6.13
2022-10-11T13:26:45.861Z,5.90
2022-10-11T13:29:38.916Z,5.35
2022-10-11T13:32:10.122Z,6.20
2022-10-11T13:34:39.558Z,5.32
2022-10-11T13:37:06.369Z,5.65
2022-10-11T13:39:37.890Z,5.38
2022-10-11T13:42:12.923Z,5.38
2022-10-11T13:44:40.486Z,5.50
2022-10-11T13:47:12.776Z,5.32
2022-10-11T13:49:39.606Z,5.40
2022-10-11T13:52:18.533Z,5.18
2022-10-11T13:54:59.567Z,6.00
2022-10-11T13:57:39.843Z,5.40
2022-10-11T14:00:14.372Z,6.35
2022-10-11T14:02:55.292Z,5.45
2022-10-11T14:05:33.921Z,5.53
2022-10-11T14:08:05.839Z,6.03
2022-10-11T14:10:32.802Z,5.93
2022-10-11T14:13:24.778Z,6.47
2022-10-11T14:16:08.855Z,5.68
2022-10-11T14:18:49.741Z,5.60
2022-10-11T14:21:18.152Z,5.97
2022-10-11T14:23:50.663Z,5.68
2022-10-11T14:26:19.045Z,5.50
2022-10-11T14:28:48.377Z,5.63
2022-10-11T14:31:14.268Z,5.55
2022-10-11T14:33:39.967Z,7.00
2022-10-11T14:36:06.017Z,5.70
2022-10-11T14:38:31.892Z,5.15
2022-10-11T14:40:57.578Z,5.63
2022-10-11T14:43:23.291Z,6.25
2022-10-11T14:45:49.224Z,5.32
2022-10-11T14:48:15.585Z,5.53
2022-10-11T14:50:50.561Z,5.13
2022-10-11T14:53:16.555Z,4.50
2022-10-11T14:55:42.863Z,4.82
2022-10-11T14:58:10.858Z,4.75
2022-10-11T15:00:36.976Z,4.13
2022-10-11T15:03:04.488Z,4.93
2022-10-11T15:05:33.920Z,5.57
2022-10-11T15:08:00.876Z,5.13
2022-10-11T15:10:37.435Z,5.22
2022-10-11T15:13:04.529Z,4.85
2022-10-11T15:15:34.602Z,4.63
2022-10-11T15:18:01.244Z,5.15
2022-10-11T15:20:32.495Z,4.90
2022-10-11T15:22:59.662Z,5.50
2022-10-11T15:25:27.206Z,4.90
2022-10-11T15:27:53.098Z,5.28
2022-10-11T15:30:28.614Z,5.63
2022-10-11T15:32:54.733Z,5.43
2022-10-11T15:35:22.274Z,5.40
2022-10-11T15:37:52.110Z,5.63
2022-10-11T15:40:24.040Z,5.72
2022-10-11T15:42:51.290Z,5.18
2022-10-11T15:45:19.405Z,5.70
2022-10-11T15:47:45.601Z,5.47
2022-10-11T15:50:33.504Z,5.40
2022-10-11T15:53:01.628Z,5.72
2022-10-11T15:55:27.946Z,6.57
2022-10-11T15:57:53.648Z,5.55
2022-10-11T16:00:22.274Z,5.88
2022-10-11T16:02:51.088Z,5.47
2022-10-11T16:05:21.077Z,6.13
2022-10-11T16:07:47.317Z,6.28
2022-10-11T16:10:13.293Z,6.18
2022-10-11T16:12:39.377Z,5.80
2022-10-11T16:15:05.599Z,6.30
2022-10-11T16:17:31.657Z,6.18
2022-10-11T16:19:57.415Z,6.22
2022-10-11T16:22:23.697Z,6.28
2022-10-11T16:24:49.503Z,5.97
2022-10-11T16:27:18.837Z,6.22
2022-10-11T16:29:44.902Z,6.15
2022-10-11T16:32:10.701Z,6.60
2022-10-11T16:34:36.565Z,6.20
2022-10-11T16:37:02.421Z,6.72
2022-10-11T16:39:28.555Z,6.25
2022-10-11T16:41:54.284Z,6.97
2022-10-11T16:44:24.507Z,6.80
2022-10-11T16:46:51.184Z,9.10
2022-10-11T16:49:19.123Z,6.38
2022-10-11T16:51:45.239Z,7.68
2022-10-11T16:54:11.114Z,5.82
2022-10-11T16:56:39.884Z,5.93
2022-10-11T16:59:06.705Z,6.85
2022-10-11T17:01:32.652Z,5.75
2022-10-11T17:04:04.463Z,6.80
2022-10-11T17:06:30.157Z,6.32
2022-10-11T17:08:56.253Z,7.18
2022-10-11T17:11:22.619Z,6.93
2022-10-11T17:13:49.869Z,7.15
2022-10-11T17:16:16.920Z,7.63
2022-10-11T17:18:42.681Z,6.78
2022-10-11T17:21:11.833Z,7.03
2022-10-11T17:23:38.015Z,6.35
2022-10-11T17:26:10.977Z,7.05
2022-10-11T17:31:04.835Z,6.82
2022-10-11T17:33:31.469Z,6.15
2022-10-11T17:35:59.088Z,6.25
2022-10-11T17:38:26.680Z,6.50
2022-10-11T17:41:00.730Z,5.78
2022-10-11T17:43:27.403Z,6.38
2022-10-11T17:45:57.545Z,6.35
2022-10-11T17:48:23.672Z,5.90
2022-10-11T17:50:50.727Z,6.60
2022-10-11T17:53:17.312Z,6.88
2022-10-11T17:55:44.027Z,6.57
2022-10-11T17:58:11.204Z,6.63
2022-10-11T18:00:40.087Z,5.93
2022-10-11T18:03:06.383Z,7.20
2022-10-11T18:05:32.728Z,6.63
2022-10-11T18:07:58.839Z,7.75
2022-10-11T18:10:24.640Z,11.10
2022-10-11T18:12:54.088Z,10.60
2022-10-11T18:15:19.787Z,8.48
2022-10-11T18:17:47.122Z,6.50
2022-10-11T18:20:13.541Z,7.97
2022-10-11T18:22:39.326Z,7.90
2022-10-11T18:25:05.245Z,8.10
2022-10-11T18:27:31.002Z,8.50
2022-10-11T18:29:56.896Z,7.50
2022-10-11T18:32:22.648Z,6.95
2022-10-11T18:34:48.748Z,7.50
2022-10-11T18:37:14.441Z,6.60
2022-10-11T18:39:40.244Z,7.82
2022-10-11T18:42:06.098Z,7.82
2022-10-11T18:44:32.074Z,7.90
2022-10-11T18:46:58.154Z,6.97
2022-10-11T18:49:24.808Z,10.32
2022-10-11T18:51:50.494Z,10.32
2022-10-11T18:54:20.290Z,11.93
2022-10-11T18:56:47.129Z,14.77
2022-10-11T18:59:12.827Z,6.38
2022-10-11T19:01:40.849Z,6.47
2022-10-11T19:04:11.051Z,6.28
2022-10-11T19:06:39.940Z,7.72
2022-10-11T19:09:09.576Z,6.55
2022-10-11T19:11:36.501Z,6.25
2022-10-11T19:14:14.458Z,6.93
2022-10-11T19:16:48.785Z,8.10
2022-10-11T19:19:15.339Z,6.25
2022-10-11T19:21:41.807Z,7.20
2022-10-11T19:24:08.293Z,7.20
2022-10-11T19:26:36.857Z,5.90
2022-10-11T19:29:13.897Z,6.43
2022-10-11T19:31:42.802Z,6.15
2022-10-11T19:34:09.492Z,6.43
2022-10-11T19:36:36.999Z,6.25
2022-10-11T19:39:04.425Z,6.55
2022-10-11T19:41:30.211Z,6.70
2022-10-11T19:43:57.443Z,5.88
2022-10-11T19:46:44.546Z,5.97
2022-10-11T19:49:11.250Z,7.45
2022-10-11T19:54:09.346Z,6.07
2022-10-11T19:56:35.773Z,5.85
2022-10-11T19:59:02.010Z,6.20
2022-10-11T20:01:30.257Z,8.57
2022-10-11T20:04:02.891Z,6.38
2022-10-11T20:06:29.365Z,6.30
2022-10-11T20:09:10.583Z,6.38
2022-10-11T20:11:41.677Z,5.93
2022-10-11T20:14:08.045Z,6.43
2022-10-11T20:16:34.019Z,6.15
2022-10-11T20:19:01.235Z,6.55
2022-10-11T20:21:29.031Z,6.90
2022-10-11T20:24:02.509Z,6.95
2022-10-11T20:28:56.171Z,5.68
2022-10-11T20:31:29.437Z,5.70
2022-10-11T20:33:57.295Z,5.68
2022-10-11T20:36:25.956Z,5.78
2022-10-11T20:38:51.978Z,5.80
2022-10-11T20:41:21.047Z,5.22
2022-10-11T20:43:48.966Z,5.93
2022-10-11T20:46:17.008Z,6.55
2022-10-11T20:48:48.784Z,5.45
2022-10-11T20:51:14.726Z,6.20
2022-10-11T20:53:40.426Z,6.20
2022-10-11T20:56:09.935Z,6.25
2022-10-11T20:58:36.720Z,5.97
2022-10-11T21:01:15.298Z,5.57
2022-10-11T21:03:44.730Z,6.22
2022-10-11T21:06:10.946Z,6.47
2022-10-11T21:08:37.905Z,6.22
2022-10-11T21:11:05.014Z,6.00
2022-10-11T21:13:30.952Z,5.70
2022-10-11T21:16:12.271Z,5.88
2022-10-11T21:18:38.717Z,5.97
2022-10-11T21:21:09.891Z,5.50
2022-10-11T21:23:35.818Z,5.85
2022-10-11T21:26:07.324Z,6.15
2022-10-11T21:28:33.192Z,5.72
2022-10-11T21:31:28.534Z,5.78
2022-10-11T21:33:58.755Z,5.53
2022-10-11T21:36:24.558Z,5.47
2022-10-11T21:38:51.510Z,5.55
2022-10-11T21:41:20.053Z,6.22
2022-10-11T21:43:46.661Z,6.10
2022-10-11T21:46:19.831Z,5.60
2022-10-11T21:48:46.334Z,6.03
2022-10-11T21:51:19.716Z,5.63
2022-10-11T21:53:46.152Z,6.25
2022-10-11T21:56:11.934Z,6.65
2022-10-11T21:58:37.785Z,6.55
2022-10-11T22:01:03.547Z,7.00
2022-10-11T22:03:29.302Z,6.65
2022-10-11T22:05:54.978Z,6.55
2022-10-11T22:08:20.820Z,6.90
2022-10-11T22:10:55.468Z,5.80
2022-10-11T22:13:22.936Z,6.45
2022-10-11T22:18:14.696Z,6.50
2022-10-11T22:20:40.486Z,6.43
2022-10-11T22:23:06.193Z,5.95
2022-10-11T22:25:35.975Z,6.75
2022-10-11T22:28:01.878Z,6.20
2022-10-11T22:30:27.612Z,7.00
2022-10-11T22:32:53.383Z,6.32
2022-10-11T22:35:19.219Z,6.43
2022-10-11T22:37:45.066Z,6.63
2022-10-11T22:40:11.577Z,6.78
2022-10-11T22:42:37.264Z,6.80
2022-10-11T22:45:03.776Z,6.60
2022-10-11T22:47:29.463Z,6.30
2022-10-11T22:49:55.139Z,8.05
2022-10-11T22:52:20.845Z,7.32
2022-10-11T22:54:46.530Z,7.53
2022-10-11T22:57:12.281Z,7.15
2022-10-11T22:59:38.069Z,7.82
2022-10-11T23:02:03.745Z,7.85
2022-10-11T23:04:29.509Z,7.30
2022-10-11T23:06:55.196Z,7.18
2022-10-11T23:09:21.042Z,7.90
2022-10-11T23:11:47.086Z,6.32
2022-10-11T23:14:13.000Z,7.53
2022-10-11T23:16:38.684Z,7.10
2022-10-11T23:19:04.466Z,7.50
2022-10-11T23:21:30.147Z,7.50
2022-10-11T23:23:55.966Z,7.70
2022-10-11T23:26:21.714Z,7.35
2022-10-11T23:28:47.423Z,7.03
2022-10-11T23:31:16.022Z,6.65
2022-10-11T23:33:42.940Z,7.30
2022-10-11T23:36:16.280Z,7.25
2022-10-11T23:38:42.236Z,7.07
2022-10-11T23:41:07.908Z,7.13
2022-10-11T23:43:33.710Z,6.90
2022-10-11T23:45:59.946Z,7.07
2022-10-11T23:48:25.701Z,7.68
2022-10-11T23:50:51.436Z,7.30
2022-10-11T23:53:17.161Z,6.88
2022-10-11T23:55:42.901Z,6.65
2022-10-11T23:58:08.687Z,7.50
